DAL1628 KBOS-KPHL
Flight info
| Callsign | DAL1628 |
|---|---|
| Flight time | 1h 3m |
| Altitude | 30000 |
| Route | SSOXS7 SSOXS Q167 RIFLE Q439 BRIGS JIIMS4 |
| Aircraft | B77L/H-SDE1E2E3FGHIJ2J3J4J5M1RWXY/LB1D1 |
Departure
| Time | 2026-05-04 22:17 |
|---|---|
| Airport | Boston Logan International Airport (KBOS) |
Arrival
| Time | 2026-05-04 23:21 |
|---|---|
| Airport | Philadelphia International Airport (KPHL) |
| Time | Latitude | Longitude | Altitude | Speed | Heading |
|---|---|---|---|---|---|
| 2026-05-04 21:50 | 42.36147 | -71.02438 | 30 ft | 0 kts | 299° |
| 2026-05-04 22:08 | 42.36146 | -71.02436 | 30 ft | 2 kts | 298° |
| 2026-05-04 22:08 | 42.36142 | -71.02418 | 30 ft | 2 kts | 274° |
| 2026-05-04 22:08 | 42.36145 | -71.02396 | 29 ft | 2 kts | 243° |
| 2026-05-04 22:08 | 42.36154 | -71.02377 | 28 ft | 2 kts | 223° |
| 2026-05-04 22:09 | 42.36167 | -71.02363 | 30 ft | 2 kts | 212° |
| 2026-05-04 22:09 | 42.36181 | -71.02352 | 28 ft | 2 kts | 200° |
| 2026-05-04 22:09 | 42.36189 | -71.02348 | 28 ft | 0 kts | 188° |
| 2026-05-04 22:12 | 42.36167 | -71.02353 | 29 ft | 8 kts | 188° |
| 2026-05-04 22:12 | 42.36082 | -71.02316 | 30 ft | 18 kts | 152° |
| 2026-05-04 22:12 | 42.35950 | -71.02070 | 30 ft | 28 kts | 120° |
| 2026-05-04 22:12 | 42.35886 | -71.01923 | 30 ft | 25 kts | 120° |
| 2026-05-04 22:13 | 42.35839 | -71.01726 | 30 ft | 12 kts | 99° |
| 2026-05-04 22:13 | 42.35831 | -71.01597 | 30 ft | 11 kts | 65° |
| 2026-05-04 22:13 | 42.35918 | -71.01536 | 30 ft | 23 kts | 21° |
| 2026-05-04 22:13 | 42.36097 | -71.01451 | 30 ft | 28 kts | 19° |
| 2026-05-04 22:14 | 42.36282 | -71.01362 | 30 ft | 25 kts | 19° |
| 2026-05-04 22:14 | 42.36448 | -71.01283 | 30 ft | 25 kts | 19° |
| 2026-05-04 22:14 | 42.36614 | -71.01200 | 30 ft | 25 kts | 20° |
| 2026-05-04 22:14 | 42.36758 | -71.01146 | 30 ft | 21 kts | 353° |
| 2026-05-04 22:15 | 42.36875 | -71.01229 | 30 ft | 16 kts | 358° |
| 2026-05-04 22:15 | 42.36986 | -71.01116 | 30 ft | 24 kts | 33° |
| 2026-05-04 22:15 | 42.37135 | -71.01013 | 30 ft | 24 kts | 26° |
| 2026-05-04 22:15 | 42.37285 | -71.00918 | 30 ft | 24 kts | 22° |
| 2026-05-04 22:16 | 42.37442 | -71.00840 | 30 ft | 24 kts | 20° |
| 2026-05-04 22:16 | 42.37599 | -71.00764 | 30 ft | 24 kts | 19° |
| 2026-05-04 22:16 | 42.37756 | -71.00688 | 30 ft | 24 kts | 19° |
| 2026-05-04 22:16 | 42.37833 | -71.00599 | 30 ft | 10 kts | 84° |
| 2026-05-04 22:17 | 42.37796 | -71.00505 | 30 ft | 24 kts | 154° |
| 2026-05-04 22:17 | 42.37579 | -71.00577 | 30 ft | 60 kts | 200° |
| 2026-05-04 22:17 | 42.36841 | -71.00934 | 62 ft | 157 kts | 201° |
| 2026-05-04 22:17 | 42.35781 | -71.01442 | 1201 ft | 156 kts | 206° |
| 2026-05-04 22:18 | 42.34677 | -71.01743 | 2231 ft | 177 kts | 182° |
| 2026-05-04 22:18 | 42.33400 | -71.01151 | 2740 ft | 215 kts | 147° |
| 2026-05-04 22:18 | 42.32423 | -70.99514 | 3548 ft | 227 kts | 128° |
| 2026-05-04 22:18 | 42.31530 | -70.97699 | 4281 ft | 235 kts | 120° |
| 2026-05-04 22:19 | 42.31141 | -70.95492 | 4519 ft | 259 kts | 84° |
| 2026-05-04 22:19 | 42.31508 | -70.92991 | 4981 ft | 285 kts | 77° |
| 2026-05-04 22:19 | 42.31913 | -70.90335 | 5998 ft | 290 kts | 78° |
| 2026-05-04 22:19 | 42.32302 | -70.87650 | 7065 ft | 295 kts | 77° |
| 2026-05-04 22:20 | 42.32691 | -70.84892 | 8171 ft | 301 kts | 76° |
| 2026-05-04 22:20 | 42.33078 | -70.82125 | 9272 ft | 305 kts | 77° |
| 2026-05-04 22:20 | 42.33033 | -70.79211 | 10098 ft | 320 kts | 105° |
| 2026-05-04 22:20 | 42.32168 | -70.76388 | 10776 ft | 336 kts | 116° |
| 2026-05-04 22:21 | 42.31091 | -70.73409 | 11059 ft | 366 kts | 120° |
| 2026-05-04 22:21 | 42.29409 | -70.70712 | 11434 ft | 387 kts | 147° |
| 2026-05-04 22:21 | 42.26960 | -70.69232 | 12489 ft | 387 kts | 171° |
| 2026-05-04 22:21 | 42.24298 | -70.68860 | 13618 ft | 383 kts | 185° |
| 2026-05-04 22:22 | 42.21657 | -70.69083 | 14057 ft | 385 kts | 189° |
| 2026-05-04 22:22 | 42.18979 | -70.69481 | 14038 ft | 388 kts | 191° |
| 2026-05-04 22:22 | 42.16279 | -70.69936 | 14679 ft | 393 kts | 191° |
| 2026-05-04 22:22 | 42.13542 | -70.70388 | 15803 ft | 396 kts | 191° |
| 2026-05-04 22:23 | 42.10778 | -70.70820 | 16899 ft | 401 kts | 191° |
| 2026-05-04 22:23 | 42.08006 | -70.71231 | 17892 ft | 408 kts | 190° |
| 2026-05-04 22:23 | 42.05139 | -70.71640 | 18730 ft | 417 kts | 190° |
| 2026-05-04 22:23 | 42.02231 | -70.72046 | 19560 ft | 424 kts | 190° |
| 2026-05-04 22:24 | 41.99272 | -70.72455 | 20432 ft | 430 kts | 190° |
| 2026-05-04 22:24 | 41.96268 | -70.72868 | 21256 ft | 436 kts | 190° |
| 2026-05-04 22:24 | 41.93263 | -70.73282 | 22058 ft | 443 kts | 190° |
| 2026-05-04 22:24 | 41.90172 | -70.73710 | 22874 ft | 449 kts | 190° |
| 2026-05-04 22:25 | 41.87051 | -70.74200 | 23631 ft | 453 kts | 194° |
| 2026-05-04 22:25 | 41.83974 | -70.75184 | 24304 ft | 453 kts | 202° |
| 2026-05-04 22:25 | 41.81021 | -70.76647 | 25041 ft | 452 kts | 208° |
| 2026-05-04 22:25 | 41.78224 | -70.78555 | 25787 ft | 450 kts | 215° |
| 2026-05-04 22:26 | 41.75488 | -70.80655 | 26495 ft | 454 kts | 216° |
| 2026-05-04 22:26 | 41.72732 | -70.82784 | 27197 ft | 458 kts | 215° |
| 2026-05-04 22:26 | 41.70006 | -70.84868 | 28118 ft | 455 kts | 215° |
| 2026-05-04 22:26 | 41.67258 | -70.86941 | 29221 ft | 451 kts | 215° |
| 2026-05-04 22:27 | 41.64505 | -70.89005 | 29890 ft | 451 kts | 215° |
| 2026-05-04 22:27 | 41.59030 | -70.93095 | 29897 ft | 450 kts | 216° |
| 2026-05-04 22:28 | 41.54150 | -70.98079 | 29906 ft | 437 kts | 231° |
| 2026-05-04 22:28 | 41.50486 | -71.04415 | 29928 ft | 428 kts | 242° |
| 2026-05-04 22:29 | 41.47244 | -71.11042 | 29916 ft | 429 kts | 242° |
| 2026-05-04 22:29 | 41.43942 | -71.17699 | 29911 ft | 430 kts | 242° |
| 2026-05-04 22:30 | 41.40611 | -71.24339 | 29914 ft | 430 kts | 242° |
| 2026-05-04 22:30 | 41.37301 | -71.30915 | 29909 ft | 429 kts | 242° |
| 2026-05-04 22:31 | 41.33972 | -71.37511 | 29939 ft | 429 kts | 241° |
| 2026-05-04 22:31 | 41.30632 | -71.44107 | 29940 ft | 428 kts | 241° |
| 2026-05-04 22:32 | 41.27321 | -71.50633 | 29939 ft | 427 kts | 241° |
| 2026-05-04 22:32 | 41.23997 | -71.57177 | 29939 ft | 427 kts | 241° |
| 2026-05-04 22:33 | 41.20682 | -71.63689 | 29938 ft | 427 kts | 241° |
| 2026-05-04 22:33 | 41.17349 | -71.70224 | 29940 ft | 427 kts | 241° |
| 2026-05-04 22:34 | 41.14016 | -71.76744 | 29957 ft | 427 kts | 241° |
| 2026-05-04 22:34 | 41.10675 | -71.83284 | 29948 ft | 426 kts | 241° |
| 2026-05-04 22:35 | 41.07363 | -71.89766 | 29950 ft | 426 kts | 241° |
| 2026-05-04 22:35 | 41.04046 | -71.96280 | 29955 ft | 425 kts | 243° |
| 2026-05-04 22:36 | 41.01366 | -72.03136 | 29948 ft | 420 kts | 250° |
| 2026-05-04 22:36 | 40.98928 | -72.10175 | 29956 ft | 419 kts | 250° |
| 2026-05-04 22:37 | 40.96463 | -72.17191 | 29953 ft | 419 kts | 249° |
| 2026-05-04 22:37 | 40.94002 | -72.24145 | 29946 ft | 419 kts | 249° |
| 2026-05-04 22:38 | 40.91083 | -72.30873 | 29959 ft | 425 kts | 239° |
| 2026-05-04 22:38 | 40.87269 | -72.36885 | 29951 ft | 432 kts | 231° |
| 2026-05-04 22:39 | 40.82962 | -72.42451 | 29966 ft | 432 kts | 230° |
| 2026-05-04 22:39 | 40.78625 | -72.47875 | 29956 ft | 434 kts | 225° |
| 2026-05-04 22:40 | 40.73920 | -72.52899 | 29962 ft | 434 kts | 225° |
| 2026-05-04 22:40 | 40.69244 | -72.57948 | 29962 ft | 433 kts | 227° |
| 2026-05-04 22:41 | 40.64948 | -72.63445 | 29082 ft | 437 kts | 231° |
| 2026-05-04 22:41 | 40.62855 | -72.66213 | 28646 ft | 431 kts | 231° |
| 2026-05-04 22:41 | 40.60731 | -72.69011 | 27925 ft | 429 kts | 231° |
| 2026-05-04 22:41 | 40.58628 | -72.71767 | 27302 ft | 424 kts | 231° |
| 2026-05-04 22:42 | 40.56545 | -72.74489 | 26700 ft | 418 kts | 231° |
| 2026-05-04 22:42 | 40.54494 | -72.77163 | 26111 ft | 413 kts | 231° |
| 2026-05-04 22:42 | 40.52460 | -72.79812 | 25536 ft | 409 kts | 231° |
| 2026-05-04 22:42 | 40.50416 | -72.82390 | 24981 ft | 406 kts | 229° |
| 2026-05-04 22:43 | 40.48342 | -72.84886 | 24420 ft | 403 kts | 229° |
| 2026-05-04 22:43 | 40.46269 | -72.87349 | 23860 ft | 400 kts | 228° |
| 2026-05-04 22:43 | 40.44233 | -72.89771 | 23269 ft | 397 kts | 229° |
| 2026-05-04 22:43 | 40.42195 | -72.92208 | 22649 ft | 394 kts | 229° |
| 2026-05-04 22:44 | 40.40180 | -72.94626 | 22085 ft | 390 kts | 229° |
| 2026-05-04 22:44 | 40.38194 | -72.97014 | 21533 ft | 386 kts | 229° |
| 2026-05-04 22:44 | 40.36219 | -72.99390 | 20989 ft | 383 kts | 229° |
| 2026-05-04 22:44 | 40.34263 | -73.01739 | 20450 ft | 380 kts | 229° |
| 2026-05-04 22:45 | 40.32311 | -73.04083 | 20121 ft | 382 kts | 229° |
| 2026-05-04 22:45 | 40.28429 | -73.08774 | 19971 ft | 379 kts | 229° |
| 2026-05-04 22:45 | 40.26483 | -73.11130 | 19659 ft | 384 kts | 229° |
| 2026-05-04 22:46 | 40.24523 | -73.13494 | 19399 ft | 379 kts | 229° |
| 2026-05-04 22:46 | 40.22591 | -73.15808 | 19278 ft | 374 kts | 228° |
| 2026-05-04 22:46 | 40.20674 | -73.18102 | 19126 ft | 374 kts | 228° |
| 2026-05-04 22:46 | 40.18753 | -73.20403 | 19024 ft | 374 kts | 228° |
| 2026-05-04 22:47 | 40.16830 | -73.22705 | 18884 ft | 374 kts | 228° |
| 2026-05-04 22:47 | 40.14933 | -73.24975 | 18755 ft | 374 kts | 228° |
| 2026-05-04 22:47 | 40.13005 | -73.27277 | 18618 ft | 374 kts | 228° |
| 2026-05-04 22:47 | 40.11083 | -73.29569 | 18477 ft | 374 kts | 228° |
| 2026-05-04 22:48 | 40.09152 | -73.31858 | 18360 ft | 374 kts | 228° |
| 2026-05-04 22:48 | 40.07244 | -73.34112 | 18221 ft | 373 kts | 228° |
| 2026-05-04 22:48 | 40.05321 | -73.36381 | 18068 ft | 372 kts | 228° |
| 2026-05-04 22:48 | 40.03401 | -73.38647 | 17930 ft | 371 kts | 228° |
| 2026-05-04 22:49 | 40.01486 | -73.40906 | 17784 ft | 370 kts | 228° |
| 2026-05-04 22:49 | 39.99580 | -73.43154 | 17648 ft | 368 kts | 228° |
| 2026-05-04 22:49 | 39.97678 | -73.45397 | 17532 ft | 367 kts | 228° |
| 2026-05-04 22:49 | 39.95809 | -73.47600 | 17407 ft | 366 kts | 228° |
| 2026-05-04 22:50 | 39.93917 | -73.49827 | 17301 ft | 364 kts | 228° |
| 2026-05-04 22:50 | 39.92041 | -73.52032 | 17220 ft | 363 kts | 228° |
| 2026-05-04 22:50 | 39.90200 | -73.54273 | 17089 ft | 360 kts | 231° |
| 2026-05-04 22:50 | 39.88560 | -73.56720 | 16964 ft | 356 kts | 236° |
| 2026-05-04 22:51 | 39.87020 | -73.59204 | 16853 ft | 356 kts | 236° |
| 2026-05-04 22:51 | 39.85460 | -73.61710 | 16722 ft | 356 kts | 236° |
| 2026-05-04 22:51 | 39.83888 | -73.64215 | 16587 ft | 356 kts | 236° |
| 2026-05-04 22:51 | 39.82312 | -73.66713 | 16480 ft | 356 kts | 236° |
| 2026-05-04 22:52 | 39.80736 | -73.69208 | 16345 ft | 357 kts | 236° |
| 2026-05-04 22:52 | 39.79160 | -73.71705 | 16210 ft | 356 kts | 236° |
| 2026-05-04 22:52 | 39.77606 | -73.74167 | 16083 ft | 356 kts | 236° |
| 2026-05-04 22:52 | 39.76038 | -73.76651 | 15960 ft | 356 kts | 236° |
| 2026-05-04 22:53 | 39.74468 | -73.79137 | 15830 ft | 355 kts | 236° |
| 2026-05-04 22:53 | 39.72897 | -73.81623 | 15703 ft | 355 kts | 236° |
| 2026-05-04 22:53 | 39.71330 | -73.84100 | 15575 ft | 354 kts | 235° |
| 2026-05-04 22:53 | 39.69764 | -73.86572 | 15452 ft | 353 kts | 236° |
| 2026-05-04 22:54 | 39.68203 | -73.89036 | 15333 ft | 353 kts | 235° |
| 2026-05-04 22:54 | 39.66663 | -73.91465 | 15188 ft | 352 kts | 235° |
| 2026-05-04 22:54 | 39.65105 | -73.93922 | 15075 ft | 351 kts | 235° |
| 2026-05-04 22:54 | 39.63545 | -73.96380 | 14963 ft | 350 kts | 235° |
| 2026-05-04 22:55 | 39.62014 | -73.98788 | 14819 ft | 350 kts | 235° |
| 2026-05-04 22:55 | 39.60464 | -74.01224 | 14705 ft | 349 kts | 235° |
| 2026-05-04 22:55 | 39.58922 | -74.03650 | 14577 ft | 348 kts | 235° |
| 2026-05-04 22:55 | 39.57383 | -74.06072 | 14455 ft | 348 kts | 235° |
| 2026-05-04 22:56 | 39.55843 | -74.08492 | 14329 ft | 347 kts | 235° |
| 2026-05-04 22:56 | 39.54302 | -74.10911 | 14203 ft | 347 kts | 235° |
| 2026-05-04 22:56 | 39.53029 | -74.13471 | 14099 ft | 336 kts | 251° |
| 2026-05-04 22:56 | 39.52440 | -74.16373 | 14055 ft | 333 kts | 266° |
| 2026-05-04 22:57 | 39.52396 | -74.19367 | 14051 ft | 331 kts | 273° |
| 2026-05-04 22:57 | 39.52464 | -74.22347 | 14039 ft | 331 kts | 274° |
| 2026-05-04 22:57 | 39.52518 | -74.24321 | 14037 ft | 331 kts | 274° |
| 2026-05-04 22:57 | 39.52626 | -74.28278 | 14028 ft | 328 kts | 274° |
| 2026-05-04 22:58 | 39.52694 | -74.31152 | 13278 ft | 317 kts | 274° |
| 2026-05-04 22:58 | 39.52757 | -74.34011 | 12713 ft | 317 kts | 274° |
| 2026-05-04 22:58 | 39.52795 | -74.35908 | 12441 ft | 315 kts | 274° |
| 2026-05-04 22:58 | 39.52850 | -74.38745 | 12231 ft | 318 kts | 274° |
| 2026-05-04 22:59 | 39.52905 | -74.41653 | 12036 ft | 325 kts | 274° |
| 2026-05-04 22:59 | 39.52958 | -74.44609 | 11814 ft | 328 kts | 274° |
| 2026-05-04 22:59 | 39.53007 | -74.47521 | 11601 ft | 325 kts | 274° |
| 2026-05-04 22:59 | 39.53055 | -74.50452 | 11390 ft | 323 kts | 274° |
| 2026-05-04 23:00 | 39.53102 | -74.53361 | 11181 ft | 322 kts | 274° |
| 2026-05-04 23:00 | 39.53149 | -74.56249 | 10987 ft | 317 kts | 274° |
| 2026-05-04 23:00 | 39.53190 | -74.59020 | 10754 ft | 292 kts | 275° |
| 2026-05-04 23:00 | 39.53224 | -74.61482 | 10562 ft | 263 kts | 275° |
| 2026-05-04 23:01 | 39.53261 | -74.63805 | 10423 ft | 255 kts | 275° |
| 2026-05-04 23:01 | 39.53299 | -74.66095 | 10265 ft | 253 kts | 276° |
| 2026-05-04 23:01 | 39.53336 | -74.68377 | 10143 ft | 251 kts | 275° |
| 2026-05-04 23:01 | 39.53370 | -74.70637 | 10096 ft | 251 kts | 276° |
| 2026-05-04 23:02 | 39.53404 | -74.72913 | 10050 ft | 254 kts | 276° |
| 2026-05-04 23:02 | 39.53438 | -74.75203 | 10040 ft | 254 kts | 275° |
| 2026-05-04 23:02 | 39.53474 | -74.77494 | 10026 ft | 255 kts | 275° |
| 2026-05-04 23:02 | 39.53510 | -74.79762 | 10033 ft | 255 kts | 276° |
| 2026-05-04 23:03 | 39.53546 | -74.82056 | 10027 ft | 255 kts | 276° |
| 2026-05-04 23:03 | 39.53583 | -74.84355 | 10023 ft | 255 kts | 276° |
| 2026-05-04 23:03 | 39.53619 | -74.86659 | 10024 ft | 255 kts | 276° |
| 2026-05-04 23:03 | 39.53653 | -74.88953 | 9836 ft | 253 kts | 276° |
| 2026-05-04 23:04 | 39.53686 | -74.91227 | 9503 ft | 251 kts | 276° |
| 2026-05-04 23:04 | 39.53719 | -74.93463 | 9080 ft | 249 kts | 275° |
| 2026-05-04 23:04 | 39.53913 | -74.95652 | 8517 ft | 243 kts | 293° |
| 2026-05-04 23:04 | 39.54780 | -74.97507 | 7962 ft | 241 kts | 311° |
| 2026-05-04 23:05 | 39.56003 | -74.98903 | 7716 ft | 237 kts | 322° |
| 2026-05-04 23:05 | 39.57149 | -74.99965 | 7390 ft | 236 kts | 323° |
| 2026-05-04 23:05 | 39.58504 | -75.01186 | 6991 ft | 236 kts | 323° |
| 2026-05-04 23:05 | 39.59833 | -75.02391 | 6555 ft | 236 kts | 322° |
| 2026-05-04 23:06 | 39.61171 | -75.03619 | 6165 ft | 235 kts | 321° |
| 2026-05-04 23:06 | 39.62500 | -75.04850 | 6015 ft | 232 kts | 321° |
| 2026-05-04 23:06 | 39.63812 | -75.06070 | 6012 ft | 233 kts | 322° |
| 2026-05-04 23:06 | 39.65141 | -75.07309 | 5998 ft | 236 kts | 322° |
| 2026-05-04 23:07 | 39.66495 | -75.08502 | 5989 ft | 234 kts | 330° |
| 2026-05-04 23:07 | 39.68103 | -75.09014 | 5990 ft | 244 kts | 353° |
| 2026-05-04 23:07 | 39.69800 | -75.08879 | 5790 ft | 248 kts | 1° |
| 2026-05-04 23:07 | 39.71502 | -75.08586 | 5457 ft | 245 kts | 3° |
| 2026-05-04 23:08 | 39.73120 | -75.07830 | 4894 ft | 256 kts | 30° |
| 2026-05-04 23:08 | 39.74446 | -75.06222 | 4407 ft | 263 kts | 43° |
| 2026-05-04 23:08 | 39.75679 | -75.04456 | 4100 ft | 259 kts | 44° |
| 2026-05-04 23:08 | 39.76884 | -75.02719 | 3900 ft | 261 kts | 43° |
| 2026-05-04 23:09 | 39.78090 | -75.00986 | 3803 ft | 260 kts | 44° |
| 2026-05-04 23:09 | 39.79282 | -74.99277 | 3458 ft | 252 kts | 44° |
| 2026-05-04 23:09 | 39.80479 | -74.97572 | 3175 ft | 258 kts | 44° |
| 2026-05-04 23:09 | 39.81705 | -74.95828 | 3031 ft | 262 kts | 44° |
| 2026-05-04 23:10 | 39.82923 | -74.94084 | 2984 ft | 255 kts | 45° |
| 2026-05-04 23:10 | 39.83810 | -74.92096 | 3016 ft | 260 kts | 71° |
| 2026-05-04 23:10 | 39.84261 | -74.89770 | 3016 ft | 268 kts | 74° |
| 2026-05-04 23:10 | 39.84724 | -74.87437 | 3012 ft | 268 kts | 73° |
| 2026-05-04 23:11 | 39.85222 | -74.85091 | 3000 ft | 271 kts | 71° |
| 2026-05-04 23:11 | 39.85761 | -74.82740 | 3002 ft | 268 kts | 70° |
| 2026-05-04 23:11 | 39.86320 | -74.80429 | 2995 ft | 267 kts | 71° |
| 2026-05-04 23:11 | 39.86989 | -74.78258 | 2986 ft | 259 kts | 52° |
| 2026-05-04 23:12 | 39.88294 | -74.76716 | 3010 ft | 252 kts | 21° |
| 2026-05-04 23:12 | 39.89970 | -74.76235 | 2998 ft | 246 kts | 352° |
| 2026-05-04 23:12 | 39.91578 | -74.76834 | 3003 ft | 239 kts | 332° |
| 2026-05-04 23:12 | 39.93054 | -74.77817 | 2998 ft | 236 kts | 328° |
| 2026-05-04 23:13 | 39.94316 | -74.79112 | 2995 ft | 232 kts | 304° |
| 2026-05-04 23:13 | 39.94883 | -74.81052 | 3002 ft | 232 kts | 276° |
| 2026-05-04 23:13 | 39.94902 | -74.83172 | 3012 ft | 235 kts | 269° |
| 2026-05-04 23:13 | 39.94777 | -74.85275 | 2997 ft | 235 kts | 264° |
| 2026-05-04 23:14 | 39.94470 | -74.87293 | 2983 ft | 223 kts | 258° |
| 2026-05-04 23:14 | 39.94101 | -74.89208 | 2987 ft | 219 kts | 258° |
| 2026-05-04 23:14 | 39.93710 | -74.91157 | 3007 ft | 221 kts | 257° |
| 2026-05-04 23:14 | 39.93329 | -74.93071 | 2981 ft | 214 kts | 258° |
| 2026-05-04 23:15 | 39.92963 | -74.94915 | 2985 ft | 205 kts | 257° |
| 2026-05-04 23:15 | 39.92620 | -74.96631 | 2975 ft | 189 kts | 258° |
| 2026-05-04 23:15 | 39.92305 | -74.98211 | 2979 ft | 175 kts | 258° |
| 2026-05-04 23:15 | 39.91994 | -74.99792 | 3046 ft | 179 kts | 258° |
| 2026-05-04 23:16 | 39.91684 | -75.01344 | 3004 ft | 173 kts | 258° |
| 2026-05-04 23:16 | 39.91393 | -75.02811 | 2977 ft | 158 kts | 257° |
| 2026-05-04 23:16 | 39.91126 | -75.04153 | 2803 ft | 147 kts | 258° |
| 2026-05-04 23:16 | 39.90881 | -75.05389 | 2593 ft | 137 kts | 258° |
| 2026-05-04 23:17 | 39.90649 | -75.06559 | 2434 ft | 133 kts | 258° |
| 2026-05-04 23:17 | 39.90419 | -75.07712 | 2253 ft | 132 kts | 258° |
| 2026-05-04 23:17 | 39.90188 | -75.08884 | 2074 ft | 135 kts | 259° |
| 2026-05-04 23:17 | 39.89954 | -75.10064 | 1884 ft | 134 kts | 258° |
| 2026-05-04 23:18 | 39.89724 | -75.11228 | 1709 ft | 131 kts | 256° |
| 2026-05-04 23:18 | 39.89492 | -75.12378 | 1530 ft | 135 kts | 258° |
| 2026-05-04 23:18 | 39.89251 | -75.13596 | 1322 ft | 144 kts | 257° |
| 2026-05-04 23:18 | 39.89011 | -75.14806 | 1117 ft | 134 kts | 258° |
| 2026-05-04 23:19 | 39.88793 | -75.15920 | 1003 ft | 130 kts | 257° |
| 2026-05-04 23:19 | 39.88560 | -75.17078 | 816 ft | 133 kts | 255° |
| 2026-05-04 23:19 | 39.88332 | -75.18245 | 642 ft | 133 kts | 253° |
| 2026-05-04 23:19 | 39.88092 | -75.19440 | 493 ft | 139 kts | 251° |
| 2026-05-04 23:20 | 39.87851 | -75.20640 | 323 ft | 135 kts | 251° |
| 2026-05-04 23:20 | 39.87622 | -75.21816 | 155 ft | 134 kts | 252° |
| 2026-05-04 23:20 | 39.87369 | -75.23049 | 28 ft | 134 kts | 253° |
| 2026-05-04 23:20 | 39.87210 | -75.23833 | 27 ft | 55 kts | 256° |
| 2026-05-04 23:21 | 39.87162 | -75.24102 | 28 ft | 27 kts | 263° |
| 2026-05-04 23:21 | 39.87209 | -75.24284 | 27 ft | 17 kts | 8° |
| 2026-05-04 23:21 | 39.87240 | -75.24250 | 27 ft | 6 kts | 60° |
| 2026-05-04 23:21 | 39.87246 | -75.24231 | 26 ft | 2 kts | 67° |
| 2026-05-04 23:22 | 39.87274 | -75.24200 | 27 ft | 14 kts | 26° |
| 2026-05-04 23:22 | 39.87387 | -75.24117 | 27 ft | 0 kts | 28° |